Time;durP1;ratioP1;P1;durP2;ratioP2;P2;SDS_P1;SDS_P2;PMS_P1;PMS_P2;Temp;Humidity;BMP_temperature;BMP_pressure;BME280_temperature;BME280_humidity;BME280_pressure;Samples;Min_cycle;Max_cycle;Signal;HPM_P1;HPM_P2
2023/07/03 00:01:36;;;;;;;17.63;1.77;;;17.00;99.90;;;;;;5037766;28;20022;-75
2023/07/03 00:04:01;;;;;;;13.52;1.35;;;16.90;99.90;;;;;;5037235;28;20405;-75
2023/07/03 00:06:29;;;;;;;8.15;1.00;;;16.90;99.90;;;;;;5037242;28;20029;-75
2023/07/03 00:08:54;;;;;;;11.93;1.95;;;16.90;99.90;;;;;;5037359;28;20098;-75
2023/07/03 00:11:20;;;;;;;11.38;1.20;;;16.90;99.90;;;;;;5037049;28;20104;-76
2023/07/03 00:13:46;;;;;;;11.88;1.73;;;16.80;99.90;;;;;;5035630;28;20412;-76
2023/07/03 00:16:11;;;;;;;13.88;1.65;;;16.80;99.90;;;;;;5035768;28;20029;-75
2023/07/03 00:18:37;;;;;;;14.27;1.50;;;16.80;99.90;;;;;;5036891;28;20022;-75
2023/07/03 00:21:02;;;;;;;16.50;2.50;;;16.80;99.90;;;;;;5036807;28;20029;-75
2023/07/03 00:23:28;;;;;;;12.10;1.45;;;16.80;99.90;;;;;;5036897;28;20025;-75
2023/07/03 00:25:54;;;;;;;17.60;1.58;;;16.80;99.90;;;;;;5036896;28;20025;-75
2023/07/03 00:28:19;;;;;;;12.43;1.38;;;16.80;99.90;;;;;;5036733;28;20017;-75
2023/07/03 00:30:45;;;;;;;16.77;0.73;;;16.80;99.90;;;;;;5036788;28;20064;-75
2023/07/03 00:33:11;;;;;;;14.23;1.00;;;16.80;99.90;;;;;;5036566;28;20036;-76
2023/07/03 00:35:37;;;;;;;10.15;0.77;;;16.60;99.90;;;;;;5036562;28;20029;-75
2023/07/03 00:38:04;;;;;;;6.40;0.82;;;16.70;99.90;;;;;;5035313;28;20022;-75
2023/07/03 00:40:30;;;;;;;15.27;1.17;;;16.70;99.90;;;;;;5036960;28;20033;-76
2023/07/03 00:42:55;;;;;;;14.90;1.50;;;16.80;99.90;;;;;;5035199;28;20013;-75
2023/07/03 00:45:21;;;;;;;10.02;1.08;;;16.70;99.90;;;;;;5035304;28;20034;-75
2023/07/03 00:47:48;;;;;;;21.65;2.28;;;16.70;99.90;;;;;;5035102;28;20049;-75
2023/07/03 00:50:14;;;;;;;19.00;1.98;;;16.70;99.90;;;;;;5036345;28;20025;-75
2023/07/03 00:52:41;;;;;;;10.88;1.60;;;16.70;99.90;;;;;;5036308;28;20079;-75
2023/07/03 00:55:08;;;;;;;14.45;1.23;;;16.70;99.90;;;;;;5036285;28;20021;-75
2023/07/03 00:57:34;;;;;;;9.73;1.40;;;16.60;99.90;;;;;;5036737;28;20369;-75
2023/07/03 01:00:00;;;;;;;13.55;1.10;;;16.60;99.90;;;;;;5036812;28;20036;-76
2023/07/03 01:02:37;;;;;;;14.57;1.52;;;16.50;99.90;;;;;;5034775;28;20032;-75
2023/07/03 01:05:15;;;;;;;16.10;1.70;;;16.60;99.90;;;;;;5035500;28;20021;-75
2023/07/03 01:07:42;;;;;;;14.40;1.35;;;16.50;99.90;;;;;;5036200;28;20029;-75
2023/07/03 01:10:14;;;;;;;11.88;0.93;;;16.50;99.90;;;;;;5036110;28;20024;-75
2023/07/03 01:12:43;;;;;;;13.02;1.30;;;16.40;99.90;;;;;;5034608;28;20433;-75
2023/07/03 01:15:13;;;;;;;15.40;1.52;;;16.40;99.90;;;;;;5036525;28;20041;-75
2023/07/03 01:17:40;;;;;;;17.65;1.08;;;16.40;99.90;;;;;;5035957;28;20025;-76
2023/07/03 01:20:11;;;;;;;17.63;2.30;;;16.30;99.90;;;;;;5035751;28;20025;-75
2023/07/03 01:22:58;;;;;;;16.70;1.08;;;16.30;99.90;;;;;;5034444;28;20485;-76
2023/07/03 01:25:25;;;;;;;14.65;1.70;;;16.20;99.90;;;;;;5035731;28;20056;-75
2023/07/03 01:27:52;;;;;;;14.63;1.25;;;16.20;99.90;;;;;;5034533;28;20033;-75
2023/07/03 01:30:19;;;;;;;12.38;1.08;;;17.40;99.90;;;;;;5034495;28;20037;-76
2023/07/03 01:32:47;;;;;;;18.60;1.92;;;16.30;99.90;;;;;;5034303;28;20029;-76
2023/07/03 01:35:15;;;;;;;19.85;2.22;;;16.30;99.90;;;;;;5034240;28;20028;-75
2023/07/03 01:37:46;;;;;;;17.93;2.47;;;16.30;99.90;;;;;;5035585;28;20035;-75
2023/07/03 01:40:14;;;;;;;14.93;1.17;;;16.30;99.90;;;;;;5034206;28;20033;-75
2023/07/03 01:42:41;;;;;;;18.10;1.30;;;16.30;99.90;;;;;;5035347;28;20087;-75
2023/07/03 01:45:08;;;;;;;19.77;2.13;;;16.30;99.90;;;;;;5034049;28;20539;-75
2023/07/03 01:47:33;;;;;;;15.18;1.05;;;16.30;99.90;;;;;;5035377;28;20116;-75
2023/07/03 01:49:59;;;;;;;12.82;1.83;;;16.30;99.90;;;;;;5035238;28;20053;-75
2023/07/03 01:52:36;;;;;;;13.52;0.45;;;16.30;99.90;;;;;;5035201;28;20014;-75
2023/07/03 01:55:36;;;;;;;13.80;0.60;;;16.30;99.90;;;;;;5033989;28;20025;-75
2023/07/03 01:58:11;;;;;;;14.18;0.93;;;16.30;99.90;;;;;;5035389;28;20026;-75
2023/07/03 02:00:48;;;;;;;15.70;1.33;;;16.20;99.90;;;;;;5035569;28;20080;-75
2023/07/03 02:03:17;;;;;;;16.45;2.17;;;16.20;99.90;;;;;;5035304;28;20028;-75
2023/07/03 02:05:44;;;;;;;13.30;2.20;;;16.20;99.90;;;;;;5035427;28;20022;-75
2023/07/03 02:08:11;;;;;;;14.82;1.08;;;16.20;99.90;;;;;;5034918;28;20028;-75
2023/07/03 02:10:37;;;;;;;19.98;2.72;;;16.30;99.90;;;;;;5033616;28;20485;-75
2023/07/03 02:13:03;;;;;;;16.35;1.10;;;16.20;99.90;;;;;;5034575;28;20029;-76
2023/07/03 02:15:28;;;;;;;13.82;1.10;;;16.20;99.90;;;;;;5034724;28;20512;-75
2023/07/03 02:17:55;;;;;;;9.32;1.48;;;16.10;99.90;;;;;;5033728;28;20500;-76
2023/07/03 02:20:21;;;;;;;12.13;1.20;;;16.20;99.90;;;;;;5034582;28;20150;-75
2023/07/03 02:22:47;;;;;;;10.15;1.45;;;16.10;99.90;;;;;;5034975;28;20071;-75
2023/07/03 02:25:13;;;;;;;13.65;1.00;;;16.10;99.90;;;;;;5035163;28;20021;-75
2023/07/03 02:27:42;;;;;;;20.10;1.35;;;16.20;99.90;;;;;;5034643;28;20030;-75
2023/07/03 02:30:08;;;;;;;17.05;1.17;;;16.10;99.90;;;;;;5034549;28;20017;-75
2023/07/03 02:32:35;;;;;;;16.25;2.00;;;16.10;99.90;;;;;;5034379;28;20033;-75
2023/07/03 02:35:01;;;;;;;17.00;1.83;;;16.00;99.90;;;;;;5033231;28;20024;-75
2023/07/03 02:37:26;;;;;;;32.35;2.08;;;16.10;99.90;;;;;;5034247;28;20026;-75
2023/07/03 02:39:52;;;;;;;18.20;1.52;;;16.00;99.90;;;;;;5034242;28;20461;-75
2023/07/03 02:42:18;;;;;;;13.48;1.58;;;16.00;99.90;;;;;;5033265;28;20513;-77
2023/07/03 02:44:43;;;;;;;16.40;1.63;;;16.00;99.90;;;;;;5033427;28;20109;-77
2023/07/03 02:47:09;;;;;;;18.25;0.98;;;16.00;99.90;;;;;;5035140;28;20376;-77
2023/07/03 02:49:34;;;;;;;29.73;2.70;;;16.00;99.90;;;;;;5033457;28;20021;-77
2023/07/03 02:52:00;;;;;;;12.15;0.47;;;16.00;99.90;;;;;;5034816;28;20068;-77
2023/07/03 02:54:25;;;;;;;14.88;1.67;;;16.00;99.90;;;;;;5034664;28;20389;-77
2023/07/03 02:56:51;;;;;;;23.52;2.58;;;16.00;99.90;;;;;;5034642;28;20025;-77
2023/07/03 02:59:17;;;;;;;18.10;3.40;;;16.00;99.90;;;;;;5033391;28;20022;-78
2023/07/03 03:01:42;;;;;;;24.70;2.15;;;16.80;99.90;;;;;;5034327;28;20546;-77
2023/07/03 03:04:08;;;;;;;15.32;1.25;;;16.00;99.90;;;;;;5033165;28;20026;-77
2023/07/03 03:06:33;;;;;;;9.48;0.50;;;15.90;99.90;;;;;;5034235;28;20062;-77
2023/07/03 03:08:59;;;;;;;26.85;1.38;;;16.00;99.90;;;;;;5034116;28;20083;-77
2023/07/03 03:11:24;;;;;;;15.77;1.52;;;15.90;99.90;;;;;;5034219;28;20025;-77
2023/07/03 03:13:50;;;;;;;15.93;1.77;;;15.90;99.90;;;;;;5034371;28;20112;-77
2023/07/03 03:16:16;;;;;;;15.48;1.52;;;16.00;99.90;;;;;;5034530;28;20040;-78
2023/07/03 03:18:41;;;;;;;21.30;2.58;;;16.10;99.90;;;;;;5034630;28;20101;-77
2023/07/03 03:21:07;;;;;;;13.48;0.73;;;16.00;99.90;;;;;;5033859;28;20026;-77
2023/07/03 03:23:33;;;;;;;17.17;1.50;;;16.00;99.90;;;;;;5033263;28;20088;-77
2023/07/03 03:25:58;;;;;;;12.90;1.33;;;16.20;99.90;;;;;;5033854;28;20492;-77
2023/07/03 03:28:24;;;;;;;19.65;1.25;;;16.00;99.90;;;;;;5032660;28;20022;-77
2023/07/03 03:30:49;;;;;;;10.25;1.00;;;16.00;99.90;;;;;;5034205;28;20366;-77
2023/07/03 03:33:15;;;;;;;14.13;1.23;;;16.00;99.90;;;;;;5033921;28;20392;-77
2023/07/03 03:35:41;;;;;;;12.90;0.90;;;15.90;99.90;;;;;;5034027;28;20436;-77
2023/07/03 03:38:07;;;;;;;9.27;0.80;;;15.90;99.90;;;;;;5033657;28;20060;-77
2023/07/03 03:40:32;;;;;;;8.48;1.00;;;15.90;99.90;;;;;;5033870;28;20163;-77
2023/07/03 03:42:58;;;;;;;10.35;0.50;;;15.90;99.90;;;;;;5033887;28;20025;-77
2023/07/03 03:45:24;;;;;;;7.80;0.47;;;15.90;99.90;;;;;;5034174;28;20026;-77
2023/07/03 03:47:51;;;;;;;4.97;0.38;;;15.80;99.90;;;;;;5032397;28;20469;-77
2023/07/03 03:50:16;;;;;;;2.47;0.40;;;15.80;99.90;;;;;;5033957;28;20017;-77
2023/07/03 03:52:42;;;;;;;10.10;1.23;;;15.80;99.90;;;;;;5033701;28;20025;-77
2023/07/03 03:55:08;;;;;;;4.85;0.03;;;15.80;99.90;;;;;;5034348;28;20048;-77
2023/07/03 03:57:33;;;;;;;3.42;0.05;;;15.70;99.90;;;;;;5034281;28;20037;-77
2023/07/03 03:59:59;;;;;;;4.00;0.10;;;15.70;99.90;;;;;;5033565;28;20114;-77
2023/07/03 04:02:24;;;;;;;1.75;0.10;;;15.70;99.90;;;;;;5033697;28;20067;-77
2023/07/03 04:04:50;;;;;;;2.45;0.45;;;15.70;99.90;;;;;;5033722;28;20056;-77
2023/07/03 04:07:15;;;;;;;5.28;0.05;;;15.70;99.90;;;;;;5033767;28;20018;-77
2023/07/03 04:09:41;;;;;;;3.42;0.50;;;15.80;99.90;;;;;;5033660;28;20026;-77
2023/07/03 04:12:07;;;;;;;5.40;0.95;;;15.80;99.90;;;;;;5033761;28;20470;-77
2023/07/03 04:14:33;;;;;;;5.82;0.32;;;15.80;99.90;;;;;;5033488;28;20033;-78
2023/07/03 04:17:00;;;;;;;6.78;0.45;;;15.80;99.90;;;;;;5033488;28;20544;-77
2023/07/03 04:19:28;;;;;;;7.97;0.10;;;15.80;99.90;;;;;;5032408;28;20382;-77
2023/07/03 04:21:54;;;;;;;6.40;0.20;;;15.80;99.90;;;;;;5033497;28;20044;-77
2023/07/03 04:24:19;;;;;;;4.30;0.20;;;15.80;99.90;;;;;;5033430;28;20473;-77
2023/07/03 04:26:45;;;;;;;3.20;0.00;;;15.70;99.90;;;;;;5033538;28;20088;-77
2023/07/03 04:29:10;;;;;;;2.80;0.00;;;15.80;99.90;;;;;;5033557;28;20014;-77
2023/07/03 04:31:36;;;;;;;3.75;0.60;;;15.80;99.90;;;;;;5033584;28;20439;-77
2023/07/03 04:34:02;;;;;;;1.73;0.17;;;15.90;99.90;;;;;;5033696;28;20037;-77
2023/07/03 04:36:27;;;;;;;7.63;0.15;;;15.90;99.90;;;;;;5033091;28;20029;-77
2023/07/03 04:38:57;;;;;;;3.50;0.00;;;16.00;99.90;;;;;;5031936;28;20029;-77
2023/07/03 04:41:29;;;;;;;1.65;0.00;;;16.00;99.90;;;;;;5036751;28;20025;-77
2023/07/03 04:43:57;;;;;;;5.07;0.10;;;16.00;99.90;;;;;;5037190;28;20037;-77
2023/07/03 04:46:25;;;;;;;;;;;16.00;99.90;;;;;;5037391;28;20023;-77
2023/07/03 04:48:52;;;;;;;5.57;0.28;;;16.10;99.90;;;;;;5037008;28;19905;-77
2023/07/03 04:51:19;;;;;;;3.42;0.00;;;16.10;99.90;;;;;;5036863;28;20504;-77
2023/07/03 04:53:44;;;;;;;7.40;0.88;;;16.10;99.90;;;;;;5037162;28;20021;-77
2023/07/03 04:56:10;;;;;;;5.70;0.55;;;16.10;99.90;;;;;;5036709;28;20104;-77
2023/07/03 04:58:39;;;;;;;4.15;0.00;;;16.10;99.90;;;;;;5037059;28;20032;-77
2023/07/03 05:01:05;;;;;;;3.45;0.35;;;18.20;99.90;;;;;;5036396;28;20029;-77
2023/07/03 05:03:31;;;;;;;4.68;0.73;;;16.20;99.90;;;;;;5036445;28;20025;-77
2023/07/03 05:05:57;;;;;;;6.25;0.00;;;16.30;99.90;;;;;;5035279;28;20028;-77
2023/07/03 05:08:24;;;;;;;5.85;1.70;;;16.30;99.90;;;;;;5036260;28;20112;-77
2023/07/03 05:10:51;;;;;;;4.32;0.45;;;16.30;99.90;;;;;;5035314;28;20397;-77
2023/07/03 05:13:17;;;;;;;3.78;0.13;;;16.30;99.90;;;;;;5037007;28;20045;-78
2023/07/03 05:15:42;;;;;;;3.60;0.05;;;16.40;99.90;;;;;;5036470;28;20033;-77
2023/07/03 05:18:08;;;;;;;5.63;0.10;;;16.50;99.90;;;;;;5036599;28;20103;-77
2023/07/03 05:20:33;;;;;;;4.50;0.65;;;16.40;99.90;;;;;;5036803;28;20025;-77
2023/07/03 05:22:59;;;;;;;4.40;0.50;;;16.50;99.90;;;;;;5036068;28;20022;-77
2023/07/03 05:25:24;;;;;;;2.00;0.22;;;16.50;99.90;;;;;;5035103;28;20022;-77
2023/07/03 05:27:50;;;;;;;4.20;0.00;;;16.40;99.90;;;;;;5036282;28;20041;-77
2023/07/03 05:30:16;;;;;;;8.57;0.60;;;16.60;99.90;;;;;;5036182;28;20021;-77
2023/07/03 05:32:41;;;;;;;5.00;0.30;;;16.60;99.90;;;;;;5036253;28;20049;-77
2023/07/03 05:35:08;;;;;;;4.55;0.15;;;16.50;99.90;;;;;;5035175;28;20028;-77
2023/07/03 05:37:36;;;;;;;3.10;0.10;;;16.50;99.90;;;;;;5034839;28;20018;-77
2023/07/03 05:40:03;;;;;;;5.00;0.17;;;17.10;99.90;;;;;;5035375;28;20026;-78
2023/07/03 05:42:29;;;;;;;4.75;0.47;;;16.70;99.90;;;;;;5035037;28;20404;-78
2023/07/03 05:44:55;;;;;;;3.92;0.10;;;16.70;99.90;;;;;;5036733;28;20021;-79
2023/07/03 05:47:20;;;;;;;5.35;0.73;;;16.70;99.90;;;;;;5035317;28;20017;-77
2023/07/03 05:49:48;;;;;;;7.45;0.00;;;16.80;99.90;;;;;;5036588;28;20026;-77
2023/07/03 05:52:13;;;;;;;5.35;0.80;;;16.80;99.90;;;;;;5035708;28;20025;-77
2023/07/03 05:54:39;;;;;;;5.63;0.52;;;18.10;99.90;;;;;;5034358;28;20022;-77
2023/07/03 05:57:07;;;;;;;3.53;0.40;;;16.90;99.90;;;;;;5035524;28;20071;-77
2023/07/03 05:59:35;;;;;;;4.97;0.57;;;17.00;99.90;;;;;;5035609;28;20084;-77
2023/07/03 06:02:03;;;;;;;7.80;0.50;;;17.50;99.90;;;;;;5035940;28;20061;-77
2023/07/03 06:04:29;;;;;;;;;;;17.00;99.90;;;;;;5035475;28;20029;-77
2023/07/03 06:06:55;;;;;;;3.83;0.05;;;17.00;99.90;;;;;;5035633;28;19920;-77
2023/07/03 06:09:22;;;;;;;4.13;0.28;;;17.00;99.90;;;;;;5036056;28;20101;-77
2023/07/03 06:11:48;;;;;;;7.75;0.10;;;16.90;99.90;;;;;;5035338;28;20101;-77
2023/07/03 06:14:15;;;;;;;10.90;0.52;;;16.90;99.90;;;;;;5034793;28;20511;-77
2023/07/03 06:16:45;;;;;;;5.45;0.47;;;16.80;99.90;;;;;;5035357;28;20033;-77
2023/07/03 06:19:11;;;;;;;11.38;1.10;;;16.90;99.90;;;;;;5034982;28;20033;-77
2023/07/03 06:21:37;;;;;;;5.57;0.40;;;16.90;99.90;;;;;;5033448;28;20021;-77
2023/07/03 06:24:04;;;;;;;4.28;0.13;;;17.30;99.90;;;;;;5034674;28;20025;-77
2023/07/03 06:26:30;;;;;;;7.60;0.88;;;17.10;99.90;;;;;;5033346;28;20027;-77
2023/07/03 06:28:56;;;;;;;8.90;0.52;;;17.10;99.90;;;;;;5035147;28;20550;-77
2023/07/03 06:31:21;;;;;;;6.03;0.63;;;17.20;99.90;;;;;;5034682;28;20029;-77
2023/07/03 06:33:47;;;;;;;4.63;0.35;;;17.40;99.90;;;;;;5034688;28;20025;-77
2023/07/03 06:36:20;;;;;;;5.43;0.60;;;17.40;99.90;;;;;;5034449;28;20022;-76
2023/07/03 06:38:55;;;;;;;7.78;0.85;;;17.40;99.90;;;;;;5033239;28;20025;-76
2023/07/03 06:41:23;;;;;;;5.00;1.13;;;17.50;99.90;;;;;;5034277;28;20024;-77
2023/07/03 06:43:49;;;;;;;8.10;0.15;;;17.60;99.90;;;;;;5034279;28;20104;-77
2023/07/03 06:46:15;;;;;;;4.20;0.20;;;17.70;99.90;;;;;;5032990;28;20056;-77
2023/07/03 06:48:42;;;;;;;8.48;0.30;;;17.90;99.90;;;;;;5034294;28;20134;-77
2023/07/03 06:51:09;;;;;;;3.92;0.10;;;17.90;99.90;;;;;;5035425;28;20037;-78
2023/07/03 06:53:35;;;;;;;10.70;0.98;;;17.90;99.90;;;;;;5034182;28;20026;-77
2023/07/03 06:56:02;;;;;;;2.28;0.00;;;18.00;99.90;;;;;;5034180;28;20412;-77
2023/07/03 06:58:29;;;;;;;6.95;0.65;;;18.10;99.90;;;;;;5034109;28;20033;-77
2023/07/03 07:00:56;;;;;;;4.65;0.60;;;18.10;99.90;;;;;;5034206;28;20104;-77
2023/07/03 07:03:21;;;;;;;4.88;0.40;;;18.00;99.90;;;;;;5033449;28;20052;-77
2023/07/03 07:05:47;;;;;;;1.70;0.13;;;18.20;99.90;;;;;;5032851;28;20053;-77
2023/07/03 07:08:16;;;;;;;1.95;0.00;;;18.30;99.90;;;;;;5032565;28;20014;-77
2023/07/03 07:10:43;;;;;;;8.20;0.10;;;18.40;99.90;;;;;;5032586;28;20021;-77
2023/07/03 07:13:09;;;;;;;7.70;0.30;;;18.40;99.90;;;;;;5033983;28;20099;-77
2023/07/03 07:15:39;;;;;;;3.85;0.20;;;18.40;99.90;;;;;;5033927;28;20431;-77
2023/07/03 07:18:06;;;;;;;5.85;1.45;;;18.70;99.90;;;;;;5032461;28;20083;-77
2023/07/03 07:20:39;;;;;;;5.05;0.10;;;18.50;99.90;;;;;;5033737;28;20422;-77
2023/07/03 07:23:06;;;;;;;5.03;0.03;;;18.30;99.90;;;;;;5033685;28;20029;-77
2023/07/03 07:25:32;;;;;;;2.90;0.10;;;18.30;99.90;;;;;;5033403;28;20022;-77
2023/07/03 07:27:57;;;;;;;3.20;0.28;;;18.30;99.90;;;;;;5032795;28;20022;-77
2023/07/03 07:30:23;;;;;;;8.32;0.00;;;18.40;99.90;;;;;;5031568;28;20018;-77
2023/07/03 07:32:51;;;;;;;0.63;0.10;;;18.30;99.90;;;;;;5033320;28;20057;-77
2023/07/03 07:35:18;;;;;;;4.18;0.20;;;18.40;99.90;;;;;;5032117;28;20028;-77
2023/07/03 07:37:43;;;;;;;5.15;0.25;;;18.60;99.90;;;;;;5033517;28;20030;-77
2023/07/03 07:40:10;;;;;;;2.10;0.10;;;18.80;99.90;;;;;;5033344;28;20028;-77
2023/07/03 07:42:36;;;;;;;1.02;0.00;;;19.00;99.90;;;;;;5032106;28;20350;-77
2023/07/03 07:45:02;;;;;;;1.98;0.15;;;19.00;99.90;;;;;;5033334;28;20033;-77
2023/07/03 07:47:29;;;;;;;3.22;0.25;;;19.00;99.90;;;;;;5033900;28;20416;-77
2023/07/03 07:49:54;;;;;;;2.78;0.30;;;19.20;99.80;;;;;;5033287;28;20029;-77
2023/07/03 07:52:20;;;;;;;7.88;0.30;;;19.40;99.20;;;;;;5033271;28;20025;-77
2023/07/03 07:54:46;;;;;;;2.08;0.47;;;19.60;99.20;;;;;;5033262;28;20052;-77
2023/07/03 07:57:11;;;;;;;3.15;0.47;;;19.70;99.00;;;;;;5033866;28;20376;-77
2023/07/03 07:59:37;;;;;;;6.40;0.20;;;19.60;99.40;;;;;;5033529;28;20512;-77
2023/07/03 08:02:03;;;;;;;6.75;0.25;;;19.40;97.90;;;;;;5033179;28;20566;-77
2023/07/03 08:04:28;;;;;;;3.58;0.20;;;19.20;99.00;;;;;;5031901;28;20108;-77
2023/07/03 08:06:54;;;;;;;4.90;0.47;;;18.80;98.10;;;;;;5033225;28;20052;-77
2023/07/03 08:09:22;;;;;;;5.65;1.08;;;18.70;99.40;;;;;;5033128;28;20029;-77
2023/07/03 08:11:47;;;;;;;5.75;0.28;;;18.60;99.90;;;;;;5033125;28;20026;-77
2023/07/03 08:14:13;;;;;;;9.23;0.50;;;18.40;99.90;;;;;;5033015;28;20033;-77
2023/07/03 08:16:39;;;;;;;5.57;0.95;;;18.50;99.90;;;;;;5036858;28;20096;-77
2023/07/03 08:19:05;;;;;;;3.65;0.00;;;18.60;99.90;;;;;;5037110;28;20057;-77
2023/07/03 08:21:31;;;;;;;1.42;0.03;;;18.60;99.90;;;;;;5036828;28;20040;-77
2023/07/03 08:23:56;;;;;;;4.57;0.57;;;18.60;99.90;;;;;;5037538;28;20017;-77
2023/07/03 08:26:23;;;;;;;0.80;0.00;;;18.60;99.90;;;;;;5036957;28;20067;-77
2023/07/03 08:28:49;;;;;;;4.43;0.63;;;18.60;99.90;;;;;;5035577;28;20440;-77
2023/07/03 08:31:15;;;;;;;3.65;0.40;;;18.90;99.90;;;;;;5035524;28;20029;-77
2023/07/03 08:33:41;;;;;;;3.70;0.20;;;19.00;99.90;;;;;;5036832;28;20103;-77
2023/07/03 08:36:06;;;;;;;4.10;0.35;;;18.80;99.90;;;;;;5035574;28;20493;-77
2023/07/03 08:38:32;;;;;;;2.38;0.20;;;18.60;99.90;;;;;;5036777;28;20018;-77
2023/07/03 08:40:59;;;;;;;2.35;0.10;;;18.40;99.90;;;;;;5035405;28;20021;-77
2023/07/03 08:43:30;;;;;;;4.18;1.13;;;18.60;99.90;;;;;;5036622;28;20052;-77
2023/07/03 08:45:57;;;;;;;5.55;0.77;;;18.60;99.90;;;;;;5035481;28;20018;-77
2023/07/03 08:48:27;;;;;;;3.35;0.15;;;18.90;99.90;;;;;;5035213;28;20066;-77
2023/07/03 08:50:58;;;;;;;4.88;0.38;;;19.00;99.90;;;;;;5036444;28;20448;-77
2023/07/03 08:53:30;;;;;;;4.55;0.00;;;19.10;99.90;;;;;;5035165;28;20164;-77
2023/07/03 08:56:03;;;;;;;3.78;0.10;;;19.00;99.90;;;;;;5035223;28;20025;-77
2023/07/03 08:58:29;;;;;;;4.50;0.43;;;19.30;99.90;;;;;;5036864;28;20530;-77
2023/07/03 09:01:14;;;;;;;6.03;0.73;;;18.80;99.90;;;;;;5036222;28;20105;-77
2023/07/03 09:04:09;;;;;;;6.03;0.05;;;18.70;99.90;;;;;;5036798;28;20022;-77
2023/07/03 09:06:42;;;;;;;5.72;0.20;;;18.60;99.90;;;;;;5036772;28;20465;-77
2023/07/03 09:09:23;;;;;;;4.85;0.40;;;18.60;99.90;;;;;;5036201;28;20481;-77
2023/07/03 09:11:58;;;;;;;6.97;0.32;;;18.70;99.90;;;;;;5036016;28;20021;-77
2023/07/03 09:14:28;;;;;;;4.80;0.38;;;18.90;99.90;;;;;;5035844;28;20029;-77
2023/07/03 09:16:54;;;;;;;3.45;0.15;;;19.40;99.90;;;;;;5034808;28;20108;-77
2023/07/03 09:19:24;;;;;;;4.40;0.38;;;19.70;99.90;;;;;;5034699;28;20627;-77
2023/07/03 09:21:54;;;;;;;3.33;0.00;;;19.80;99.90;;;;;;5036143;28;20051;-77
2023/07/03 09:24:39;;;;;;;4.45;0.30;;;19.90;99.90;;;;;;5034556;28;20397;-77
2023/07/03 09:27:24;;;;;;;6.93;0.52;;;20.00;99.90;;;;;;5034196;28;20052;-77
2023/07/03 09:29:50;;;;;;;5.85;0.47;;;20.00;99.90;;;;;;5036260;28;20030;-77
2023/07/03 09:32:24;;;;;;;7.82;1.23;;;19.90;98.90;;;;;;5035682;28;20026;-76
2023/07/03 09:35:15;;;;;;;2.88;0.25;;;19.80;99.30;;;;;;5035670;28;20029;-77
2023/07/03 09:37:57;;;;;;;2.88;0.17;;;19.60;99.70;;;;;;5028535;28;20038;-77
2023/07/03 09:40:26;;;;;;;6.80;0.10;;;19.40;99.90;;;;;;5035539;28;20547;-77
2023/07/03 09:42:55;;;;;;;4.65;0.20;;;19.40;99.20;;;;;;5035346;28;20400;-77
2023/07/03 09:45:28;;;;;;;1.27;0.10;;;18.90;99.20;;;;;;5035468;28;20483;-77
2023/07/03 09:47:57;;;;;;;6.20;0.00;;;19.20;99.90;;;;;;5034187;28;20120;-76
2023/07/03 09:50:27;;;;;;;2.70;0.00;;;19.20;98.90;;;;;;5035230;28;20539;-77
2023/07/03 09:52:57;;;;;;;5.93;1.10;;;19.00;99.40;;;;;;5035866;28;20030;-77
2023/07/03 09:55:24;;;;;;;3.83;0.65;;;18.90;99.90;;;;;;5035424;28;20104;-77
2023/07/03 09:57:50;;;;;;;5.68;0.20;;;18.80;99.90;;;;;;5035235;28;20025;-77
2023/07/03 10:00:20;;;;;;;5.78;0.03;;;18.70;99.90;;;;;;5035635;28;20021;-77
2023/07/03 10:02:51;;;;;;;6.75;0.32;;;18.60;99.90;;;;;;5034966;28;20416;-77
2023/07/03 10:05:21;;;;;;;4.28;0.20;;;18.70;99.90;;;;;;5033841;28;20017;-77
2023/07/03 10:07:48;;;;;;;5.22;0.40;;;18.80;99.90;;;;;;5035838;28;20018;-77
2023/07/03 10:10:17;;;;;;;4.10;0.47;;;18.80;99.90;;;;;;5034714;28;20045;-77
2023/07/03 10:12:55;;;;;;;7.10;0.40;;;19.00;99.90;;;;;;5033195;28;20370;-77
2023/07/03 10:15:25;;;;;;;3.33;0.35;;;19.20;99.90;;;;;;5035330;28;20033;-77
2023/07/03 10:17:59;;;;;;;9.52;0.60;;;19.50;99.90;;;;;;5034741;28;20434;-77
2023/07/03 10:20:28;;;;;;;6.03;0.05;;;19.50;99.60;;;;;;5034553;28;20017;-77
2023/07/03 10:22:56;;;;;;;7.57;1.00;;;19.60;99.90;;;;;;5034465;28;20029;-77
2023/07/03 10:25:29;;;;;;;4.97;0.30;;;19.80;99.20;;;;;;5034530;28;20438;-77
2023/07/03 10:28:02;;;;;;;3.72;0.00;;;20.00;99.80;;;;;;5034562;28;20436;-76
2023/07/03 10:30:33;;;;;;;2.85;0.22;;;20.10;99.90;;;;;;5034400;28;20022;-77
2023/07/03 10:33:03;;;;;;;2.72;0.05;;;20.40;99.80;;;;;;5034404;28;20022;-77
2023/07/03 10:35:32;;;;;;;2.88;0.00;;;20.40;97.00;;;;;;5034587;28;20370;-76
2023/07/03 10:38:25;;;;;;;4.18;0.30;;;20.20;97.80;;;;;;5033996;28;20029;-76
2023/07/03 10:40:55;;;;;;;8.05;0.95;;;20.10;97.60;;;;;;5033140;28;20026;-77
2023/07/03 10:43:24;;;;;;;5.68;0.50;;;20.10;98.20;;;;;;5034210;28;20025;-77
2023/07/03 10:45:51;;;;;;;4.63;0.25;;;20.10;97.30;;;;;;5032915;28;20045;-73
2023/07/03 10:48:20;;;;;;;4.38;0.28;;;19.90;96.50;;;;;;5034508;28;20029;-75
2023/07/03 10:50:48;;;;;;;3.60;0.30;;;19.80;97.50;;;;;;5032756;28;20036;-75
2023/07/03 10:53:33;;;;;;;9.13;0.75;;;19.50;97.70;;;;;;5032745;28;20036;-75
2023/07/03 10:56:11;;;;;;;3.22;0.10;;;19.40;98.00;;;;;;5034047;28;20108;-75
2023/07/03 10:59:07;;;;;;;6.05;0.70;;;19.10;98.10;;;;;;5036015;28;20417;-79
2023/07/03 11:01:44;;;;;;;2.63;0.10;;;18.90;99.10;;;;;;5036930;28;20029;-79
2023/07/03 11:04:25;;;;;;;7.57;0.30;;;18.60;99.90;;;;;;5035061;28;20040;-79
2023/07/03 11:07:04;;;;;;;4.43;0.80;;;18.20;99.90;;;;;;5036772;28;20033;-79
2023/07/03 11:09:59;;;;;;;6.00;0.55;;;17.90;99.90;;;;;;5036697;28;20048;-79
2023/07/03 11:12:39;;;;;;;5.40;0.10;;;17.80;99.90;;;;;;5036306;28;20033;-79
2023/07/03 11:15:32;;;;;;;5.43;0.32;;;17.90;99.90;;;;;;5035679;28;20102;-79
2023/07/03 11:18:15;;;;;;;5.45;0.20;;;18.10;99.90;;;;;;5035873;28;20028;-79
2023/07/03 11:21:19;;;;;;;3.88;0.28;;;18.40;99.90;;;;;;5036247;28;20048;-79
2023/07/03 11:24:21;;;;;;;2.92;0.35;;;19.00;99.90;;;;;;5035209;28;20075;-78
2023/07/03 11:26:54;;;;;;;4.28;0.45;;;19.70;97.20;;;;;;4965702;28;20446;-78
2023/07/03 11:29:20;;;;;;;4.32;0.20;;;20.40;97.30;;;;;;5035720;28;20358;-79
2023/07/03 11:31:46;;;;;;;5.10;0.10;;;20.50;96.00;;;;;;5033717;28;20022;-77
2023/07/03 11:34:15;;;;;;;5.05;0.00;;;20.50;95.10;;;;;;5032842;28;20132;-77
2023/07/03 11:36:49;;;;;;;7.22;0.30;;;20.30;94.50;;;;;;5033508;28;20017;-75
2023/07/03 11:39:17;;;;;;;2.22;0.10;;;20.10;96.20;;;;;;5033420;28;20501;-75
2023/07/03 11:41:54;;;;;;;4.60;0.17;;;20.20;95.70;;;;;;5033349;28;20025;-75
2023/07/03 11:44:32;;;;;;;4.38;0.05;;;20.10;96.00;;;;;;5033126;28;20430;-75
2023/07/03 11:47:06;;;;;;;3.80;0.40;;;19.70;96.00;;;;;;5033416;28;20021;-75
2023/07/03 11:49:36;;;;;;;6.18;0.20;;;19.60;97.20;;;;;;5033203;28;20025;-75
2023/07/03 11:52:05;;;;;;;7.32;0.50;;;19.40;97.50;;;;;;5033307;28;20100;-75
2023/07/03 11:54:34;;;;;;;6.43;0.30;;;19.00;97.10;;;;;;5033085;28;20493;-75
2023/07/03 11:57:07;;;;;;;5.43;0.20;;;18.70;97.70;;;;;;5033155;28;20083;-75
2023/07/03 11:59:42;;;;;;;3.35;0.28;;;18.70;98.80;;;;;;5031952;28;20511;-75
2023/07/03 12:02:10;;;;;;;3.15;0.20;;;18.70;98.90;;;;;;5031932;28;20025;-75
2023/07/03 12:04:42;;;;;;;4.38;0.10;;;18.70;98.40;;;;;;5033114;28;20029;-75
2023/07/03 12:07:08;;;;;;;4.03;0.08;;;19.00;98.70;;;;;;5033003;28;20017;-75
2023/07/03 12:09:37;;;;;;;6.43;0.00;;;19.70;97.60;;;;;;5033002;28;20033;-75
2023/07/03 12:12:03;;;;;;;;;;;20.30;95.80;;;;;;5032255;28;20488;-75
2023/07/03 12:14:52;;;;;;;1.73;0.00;;;20.60;94.60;;;;;;5033067;28;19913;-75
2023/07/03 12:17:36;;;;;;;3.25;0.43;;;20.70;93.00;;;;;;5033085;28;20436;-75
2023/07/03 12:20:05;;;;;;;7.00;0.57;;;20.50;94.20;;;;;;5032940;28;20527;-75
2023/07/03 12:22:35;;;;;;;;;;;20.30;93.00;;;;;;5033130;28;20033;-75
2023/07/03 12:25:06;;;;;;;3.40;0.47;;;20.00;93.30;;;;;;5031722;28;19912;-75
2023/07/03 12:27:32;;;;;;;6.85;0.10;;;19.90;94.50;;;;;;5032970;28;20021;-75
2023/07/03 12:29:58;;;;;;;12.35;0.20;;;19.70;93.10;;;;;;5032916;28;20028;-75
2023/07/03 12:32:29;;;;;;;5.13;0.10;;;19.60;94.00;;;;;;5032766;28;20412;-75
2023/07/03 12:35:09;;;;;;;0.63;0.00;;;19.50;93.60;;;;;;5032892;28;20374;-75
2023/07/03 12:37:34;;;;;;;1.85;0.08;;;19.30;93.60;;;;;;5031733;28;20397;-75
2023/07/03 12:40:00;;;;;;;1.85;0.00;;;19.20;93.40;;;;;;5033469;28;20025;-75
2023/07/03 12:42:28;;;;;;;7.07;0.20;;;19.10;94.00;;;;;;5032753;28;20493;-75
2023/07/03 12:45:18;;;;;;;6.50;0.28;;;19.00;93.60;;;;;;5033350;28;20359;-75
2023/07/03 12:47:45;;;;;;;2.22;0.00;;;19.10;94.50;;;;;;5032863;28;20018;-75
2023/07/03 12:50:18;;;;;;;7.25;0.25;;;19.30;93.60;;;;;;5032837;28;20036;-75
2023/07/03 12:52:44;;;;;;;1.10;0.00;;;19.20;93.20;;;;;;5032624;28;20013;-75
2023/07/03 12:55:11;;;;;;;4.40;0.20;;;19.10;93.30;;;;;;5032687;28;20048;-75